Etusivu
METAR-TAF:

METAR-TAF

Lentoasemat :

Guadalupe Mountainsin kansallispuisto

Pine Springs, Texas, Yhdysvallat

Leveyspiiri: 31-49-52N, Pituuspiiri: 104-48-32W, korkeus merenpinnasta: 1661 m

Tämänhetkinen sää

Tämä raportti tehtiin 52 minuuttia sitten, kello 00.51 UTC
Tuuli 15 kn koillisesta
Lämpötila 27°C
Kosteus 32%
Ilmanpaine 1021 hPa
Näkyvyys: 14.5 km
Muutamia pilviä 12000 ft:n korkeudessa

METAR: KGDP 070051Z AUTO 05015KT 9SM FEW120 27/09 A3014 RMK AO2 SLP114 T02670094

Aika: 20:43 (01:43 UTC)


TAF: puuttuu

Säähavainnot ja -ennusteet yli 4000 lentoasemalta (METAR- ja TAF-raportit).

Käytössä olevat sääasemat on merkitty karttaan keltaisilla ja punaisilla pisteillä.

Aseta hiiri pisteen päälle nähdäksesi sääaseman nimen.

Klikkaa sitten nähdäksesi säähavainnot ja -ennusteet.

Kartan vaihtaminen: klikkaa mustalla rastilla varustettuja vihreitä pisteitä, niin voit zoomata sisään; viivalla varustettua vihreää pistettä, niin voit zoomata ulos tai vihreitä nuolia, niin pääset viereisille kartoille.


METAR-TAF: